Nickajack Observed Data For Previous 48 Hours

Caption
Day and Hour Reservoir Elevation (behind dam)* Tailwater Elevation (below dam)* Average Hourly Discharge*
9/20/2018 1 AM CDT 633.45 595.34 22,203
9/20/2018 2 AM CDT 633.24 595.19 21,886
9/20/2018 3 AM CDT 633.15 594.99 20,983
9/20/2018 4 AM CDT 633.04 594.61 13,969
9/20/2018 5 AM CDT 632.93 594.52 14,297
9/20/2018 6 AM CDT 632.90 594.19 10,484
9/20/2018 7 AM CDT 632.83 594.08 9,166
9/20/2018 8 AM CDT 632.65 594.54 17,492
9/20/2018 9 AM CDT 632.62 594.26 13,368
9/20/2018 10 AM CDT 632.83 594.38 10,223
9/20/2018 11 AM CDT 633.01 595.22 27,703
9/20/2018 12 PM CDT 633.24 595.47 28,522
9/20/2018 1 PM CDT 633.54 595.60 28,370
9/20/2018 2 PM CDT 633.80 595.82 27,665
9/20/2018 3 PM CDT 633.98 595.72 28,336
9/20/2018 4 PM CDT 633.88 596.49 35,913
9/20/2018 5 PM CDT 634.02 597.16 46,909
9/20/2018 6 PM CDT 633.91 598.25 58,128
9/20/2018 7 PM CDT 633.87 598.70 63,345
9/20/2018 8 PM CDT 633.80 598.96 63,371
9/20/2018 9 PM CDT 633.81 599.15 63,372
9/20/2018 10 PM CDT 633.79 599.27 63,451
9/20/2018 11 PM CDT 633.77 599.35 63,464
9/21/2018 12 AM CDT 633.56 599.39 63,438
9/21/2018 1 AM CDT 633.66 598.30 48,585
9/21/2018 2 AM CDT 633.63 597.88 40,645
9/21/2018 3 AM CDT 633.41 597.56 40,598
9/21/2018 4 AM CDT 633.35 596.76 29,076
9/21/2018 5 AM CDT 633.22 596.44 28,955
9/21/2018 6 AM CDT 633.11 596.24 28,949
9/21/2018 7 AM CDT 633.05 596.11 28,974
9/21/2018 8 AM CDT 632.94 596.07 28,863
9/21/2018 9 AM CDT 632.86 596.02 28,829
9/21/2018 10 AM CDT 633.05 596.02 28,695
9/21/2018 11 AM CDT 633.18 595.97 28,722
9/21/2018 12 PM CDT 633.35 595.97 28,737
9/21/2018 1 PM CDT 633.57 595.93 28,756
9/21/2018 2 PM CDT 633.83 595.85 28,688
9/21/2018 3 PM CDT 633.90 596.53 37,223
9/21/2018 4 PM CDT 633.95 597.24 45,806
9/21/2018 5 PM CDT 634.01 597.57 48,801
9/21/2018 6 PM CDT 634.13 597.74 49,102
9/21/2018 7 PM CDT 634.09 598.47 58,278
9/21/2018 8 PM CDT 634.07 598.72 59,649
9/21/2018 9 PM CDT 634.01 598.89 59,786
9/21/2018 10 PM CDT 634.03 598.08 49,817
9/21/2018 11 PM CDT 634.08 597.74 40,374
9/22/2018 12 AM CDT 634.13 597.53 40,294
9/22/2018 1 AM CDT 633.88 597.38 40,190
9/22/2018 2 AM CDT 633.70 596.70 33,745
9/22/2018 3 AM CDT 633.56 596.01 22,229
9/22/2018 4 AM CDT 633.44 595.30 15,771
9/22/2018 5 AM CDT 633.32 594.93 15,581

Elevations are in feet above sea level. Discharges are in cubic feet per second and are reported at the end of the hour.